createdAt,value
2022-12-16T00:00:48.971Z,98053.34
2022-12-16T00:03:35.051Z,98051.72
2022-12-16T00:06:22.580Z,98043.91
2022-12-16T00:09:08.119Z,98048.59
2022-12-16T00:11:53.850Z,98045.13
2022-12-16T00:14:40.288Z,98052.22
2022-12-16T00:17:25.542Z,98048.69
2022-12-16T00:20:11.448Z,98032.97
2022-12-16T00:22:57.234Z,98042.03
2022-12-16T00:25:44.214Z,98042.38
2022-12-16T00:28:29.484Z,98045.56
2022-12-16T00:31:15.034Z,98051.56
2022-12-16T00:34:00.483Z,98046.78
2022-12-16T00:36:45.893Z,98046.38
2022-12-16T00:39:31.222Z,98044.03
2022-12-16T00:42:20.477Z,98056.63
2022-12-16T00:45:06.319Z,98049.13
2022-12-16T00:47:51.934Z,98057.44
2022-12-16T00:50:37.306Z,98049.44
2022-12-16T00:53:24.895Z,98056.19
2022-12-16T00:56:14.562Z,98043.16
2022-12-16T00:59:00.183Z,98040.38
2022-12-16T01:01:45.691Z,98035.31
2022-12-16T01:04:31.364Z,98036.06
2022-12-16T01:07:16.699Z,98041.59
2022-12-16T01:10:02.223Z,98052.66
2022-12-16T01:12:47.667Z,98057.44
2022-12-16T01:15:33.275Z,98060.97
2022-12-16T01:18:19.048Z,98056.19
2022-12-16T01:21:06.253Z,98055.44
2022-12-16T01:23:52.764Z,98040.84
2022-12-16T01:26:40.717Z,98045.91
2022-12-16T01:29:25.940Z,98058.97
2022-12-16T01:32:14.492Z,98055.44
2022-12-16T01:34:59.693Z,98057.44
2022-12-16T01:37:45.156Z,98055.50
2022-12-16T01:40:31.016Z,98047.56
2022-12-16T01:43:18.773Z,98055.84
2022-12-16T01:46:07.270Z,98048.31
2022-12-16T01:49:08.166Z,98044.78
2022-12-16T01:51:56.368Z,98041.25
2022-12-16T01:54:50.577Z,98033.72
2022-12-16T01:57:42.092Z,98032.19
2022-12-16T02:00:27.953Z,98030.97
2022-12-16T02:03:13.646Z,98034.50
2022-12-16T02:05:59.941Z,98036.50
2022-12-16T02:08:45.249Z,98030.19
2022-12-16T02:11:49.247Z,98024.31
2022-12-16T02:14:41.509Z,98028.31
2022-12-16T02:17:37.139Z,98023.19
2022-12-16T02:20:51.649Z,98014.03
2022-12-16T02:23:55.642Z,98021.19
2022-12-16T02:27:33.010Z,98026.72
2022-12-16T02:30:21.301Z,98013.69
2022-12-16T02:33:27.613Z,98018.88
2022-12-16T02:36:41.061Z,98016.53
2022-12-16T02:39:47.612Z,98014.13
2022-12-16T02:42:48.204Z,98009.03
2022-12-16T02:45:35.298Z,98007.03
2022-12-16T02:48:20.727Z,98009.03
2022-12-16T02:51:06.582Z,98001.06
2022-12-16T02:53:53.376Z,98000.31
2022-12-16T02:57:08.586Z,97999.50
2022-12-16T03:00:05.949Z,97989.66
2022-12-16T03:03:18.613Z,97989.66
2022-12-16T03:06:05.856Z,97984.13
2022-12-16T03:08:57.112Z,97984.13
2022-12-16T03:11:45.545Z,97980.94
2022-12-16T03:14:34.524Z,97982.13
2022-12-16T03:17:22.124Z,97982.13
2022-12-16T03:20:12.637Z,97981.38
2022-12-16T03:23:02.116Z,97977.84
2022-12-16T03:25:50.901Z,97984.91
2022-12-16T03:29:01.981Z,97974.63
2022-12-16T03:32:03.273Z,97973.16
2022-12-16T03:35:06.362Z,97976.72
2022-12-16T03:37:55.570Z,97979.47
2022-12-16T03:40:44.163Z,97975.06
2022-12-16T03:43:30.241Z,97975.84
2022-12-16T03:46:17.254Z,97984.91
2022-12-16T03:49:02.785Z,97985.44
2022-12-16T03:51:48.365Z,97984.31
2022-12-16T03:54:33.725Z,97987.09
2022-12-16T03:57:19.361Z,97984.66
2022-12-16T04:00:05.952Z,97992.09
2022-12-16T04:02:57.663Z,97989.66
2022-12-16T04:05:43.024Z,97987.25
2022-12-16T04:08:28.424Z,97992.25
2022-12-16T04:11:33.189Z,97999.00
2022-12-16T04:14:37.002Z,97999.22
2022-12-16T04:17:40.780Z,98000.34
2022-12-16T04:20:50.306Z,97993.63
2022-12-16T04:24:01.205Z,97995.94
2022-12-16T04:27:15.050Z,98008.13
2022-12-16T04:30:19.050Z,98006.56
2022-12-16T04:33:29.715Z,98004.56
2022-12-16T04:36:33.745Z,98005.72
2022-12-16T04:39:37.722Z,98008.78
2022-12-16T04:42:41.632Z,98001.28
2022-12-16T04:45:45.525Z,98014.25
2022-12-16T04:48:49.435Z,98012.72
2022-12-16T04:51:53.374Z,98021.09
2022-12-16T04:54:57.537Z,98021.97
2022-12-16T04:58:10.921Z,98028.81
2022-12-16T05:01:14.832Z,98037.53
2022-12-16T05:04:18.614Z,98032.94
2022-12-16T05:07:22.605Z,98041.50
2022-12-16T05:10:27.301Z,98042.09
2022-12-16T05:13:31.747Z,98054.97
2022-12-16T05:16:36.024Z,98052.47
2022-12-16T05:19:40.298Z,98040.41
2022-12-16T05:22:44.284Z,98051.38
2022-12-16T05:25:48.378Z,98052.50
2022-12-16T05:28:53.804Z,98051.19
2022-12-16T05:31:57.681Z,98049.56
2022-12-16T05:35:01.401Z,98056.53
2022-12-16T05:38:05.230Z,98051.22
2022-12-16T05:41:09.008Z,98050.34
2022-12-16T05:44:12.763Z,98051.47
2022-12-16T05:47:16.538Z,98052.13
2022-12-16T05:50:20.461Z,98050.50
2022-12-16T05:53:24.261Z,98059.03
2022-12-16T05:56:28.055Z,98058.59
2022-12-16T05:59:32.048Z,98056.50
2022-12-16T06:02:36.073Z,98065.16
2022-12-16T06:05:40.372Z,98069.38
2022-12-16T06:08:44.163Z,98065.38
2022-12-16T06:11:48.188Z,98071.34
2022-12-16T06:14:52.090Z,98082.44
2022-12-16T06:17:56.045Z,98082.31
2022-12-16T06:20:59.730Z,98089.16
2022-12-16T06:24:03.427Z,98092.69
2022-12-16T06:27:07.476Z,98099.47
2022-12-16T06:30:11.399Z,98105.00
2022-12-16T06:33:15.201Z,98103.47
2022-12-16T06:36:18.991Z,98111.78
2022-12-16T06:39:22.814Z,98110.22
2022-12-16T06:42:26.611Z,98103.56
2022-12-16T06:45:34.671Z,98115.84
2022-12-16T06:48:39.106Z,98121.06
2022-12-16T06:51:42.933Z,98133.00
2022-12-16T06:54:46.733Z,98136.53
2022-12-16T06:57:50.648Z,98143.28
2022-12-16T07:00:54.642Z,98148.84
2022-12-16T07:03:59.540Z,98146.50
2022-12-16T07:07:03.260Z,98152.50
2022-12-16T07:10:07.144Z,98167.09
2022-12-16T07:13:11.130Z,98171.06
2022-12-16T07:16:15.213Z,98169.53
2022-12-16T07:19:18.874Z,98177.84
2022-12-16T07:22:22.635Z,98184.16
2022-12-16T07:25:26.384Z,98183.81
2022-12-16T07:28:30.359Z,98186.22
2022-12-16T07:31:34.221Z,98200.06
2022-12-16T07:34:42.028Z,98202.84
2022-12-16T07:37:47.871Z,98204.06
2022-12-16T07:40:51.876Z,98204.91
2022-12-16T07:43:55.708Z,98208.47
2022-12-16T07:46:59.498Z,98221.53
2022-12-16T07:50:03.349Z,98212.44
2022-12-16T07:53:12.531Z,98217.22
2022-12-16T07:56:16.495Z,98219.63
2022-12-16T07:59:20.359Z,98218.44
2022-12-16T08:02:24.696Z,98217.63
2022-12-16T08:05:28.928Z,98226.75
2022-12-16T08:08:32.756Z,98228.38
2022-12-16T08:11:36.647Z,98228.38
2022-12-16T08:14:40.383Z,98219.63
2022-12-16T08:17:48.740Z,98226.41
2022-12-16T08:20:53.053Z,98233.13
2022-12-16T08:23:58.713Z,98239.03
2022-12-16T08:27:02.477Z,98240.25
2022-12-16T08:30:06.409Z,98245.78
2022-12-16T08:33:18.502Z,98249.75
2022-12-16T08:36:24.119Z,98243.44
2022-12-16T08:39:27.934Z,98249.75
2022-12-16T08:42:31.764Z,98248.19
2022-12-16T08:45:35.930Z,98250.53
2022-12-16T08:48:39.940Z,98259.69
2022-12-16T08:51:43.634Z,98272.78
2022-12-16T08:54:47.633Z,98275.53
2022-12-16T08:57:51.542Z,98277.53
2022-12-16T09:00:55.594Z,98280.31
2022-12-16T09:03:59.928Z,98277.25
2022-12-16T09:07:04.086Z,98272.75
2022-12-16T09:10:07.951Z,98286.84
2022-12-16T09:13:12.831Z,98294.38
2022-12-16T09:16:19.494Z,98289.28
2022-12-16T09:19:23.697Z,98300.78
2022-12-16T09:22:27.603Z,98305.09
2022-12-16T09:25:31.572Z,98314.97
2022-12-16T09:28:35.448Z,98318.19
2022-12-16T09:31:39.541Z,98318.94
2022-12-16T09:34:43.191Z,98330.03
2022-12-16T09:37:47.184Z,98322.91
2022-12-16T09:40:50.953Z,98335.56
2022-12-16T09:44:01.434Z,98335.56
2022-12-16T09:47:35.579Z,98329.25
2022-12-16T09:50:44.458Z,98336.50
2022-12-16T09:53:55.474Z,98335.03
2022-12-16T09:57:02.057Z,98343.66
2022-12-16T10:00:16.071Z,98348.34
2022-12-16T10:03:31.767Z,98353.47
2022-12-16T10:06:54.550Z,98350.69
2022-12-16T10:10:15.467Z,98348.69
2022-12-16T10:13:28.361Z,98343.16
2022-12-16T10:16:58.651Z,98352.16
2022-12-16T10:20:22.057Z,98352.53
2022-12-16T10:23:48.100Z,98358.75
2022-12-16T10:27:19.869Z,98348.88
2022-12-16T10:30:31.528Z,98355.53
2022-12-16T10:33:37.599Z,98366.63
2022-12-16T10:36:43.398Z,98363.44
2022-12-16T10:39:51.119Z,98373.28
2022-12-16T10:43:05.781Z,98369.31
2022-12-16T10:46:12.458Z,98365.31
2022-12-16T10:49:16.396Z,98370.88
2022-12-16T10:52:20.707Z,98366.91
2022-12-16T10:55:52.733Z,98369.31
2022-12-16T10:59:10.156Z,98373.63
2022-12-16T11:02:41.509Z,98381.16
2022-12-16T11:05:53.950Z,98383.50
2022-12-16T11:08:59.821Z,98377.97
2022-12-16T11:12:03.719Z,98381.09
2022-12-16T11:18:38.162Z,98386.28
2022-12-16T11:21:41.977Z,98389.06
2022-12-16T11:24:46.783Z,98371.66
2022-12-16T11:27:50.720Z,98382.28
2022-12-16T11:30:55.088Z,98390.59
2022-12-16T11:34:00.894Z,98384.28
2022-12-16T11:37:10.353Z,98385.06
2022-12-16T11:40:15.065Z,98379.53
2022-12-16T11:43:22.436Z,98397.34
2022-12-16T11:46:31.755Z,98401.66
2022-12-16T11:49:50.994Z,98401.25
2022-12-16T11:52:55.257Z,98404.78
2022-12-16T11:56:11.170Z,98405.56
2022-12-16T11:59:25.554Z,98406.38
2022-12-16T12:02:56.116Z,98415.97
2022-12-16T12:06:14.461Z,98413.19
2022-12-16T12:09:29.695Z,98418.28
2022-12-16T12:13:06.626Z,98415.50
2022-12-16T12:16:41.429Z,98425.41
2022-12-16T12:20:25.781Z,98425.41
2022-12-16T12:23:30.594Z,98428.94
2022-12-16T12:32:35.584Z,98441.56
2022-12-16T12:36:13.472Z,98435.59
2022-12-16T12:39:28.757Z,98430.47
2022-12-16T12:42:48.740Z,98435.59
2022-12-16T12:46:38.159Z,98437.19
2022-12-16T12:49:53.276Z,98442.28
2022-12-16T12:53:16.530Z,98438.38
2022-12-16T12:56:46.966Z,98450.66
2022-12-16T13:00:19.491Z,98460.53
2022-12-16T13:04:02.403Z,98466.00
2022-12-16T13:07:07.351Z,98462.59
2022-12-16T13:10:48.740Z,98471.03
2022-12-16T13:13:55.537Z,98471.25
2022-12-16T13:17:02.719Z,98470.72
2022-12-16T13:20:16.273Z,98482.88
2022-12-16T13:23:42.651Z,98485.94
2022-12-16T13:26:49.469Z,98479.53
2022-12-16T13:29:53.419Z,98494.09
2022-12-16T13:32:57.241Z,98496.44
2022-12-16T13:36:18.101Z,98501.03
2022-12-16T13:39:59.493Z,98506.91
2022-12-16T13:43:03.104Z,98502.88
2022-12-16T13:46:33.399Z,98509.09
2022-12-16T13:50:00.408Z,98516.13
2022-12-16T13:53:14.844Z,98527.13
2022-12-16T13:56:19.689Z,98527.06
2022-12-16T13:59:29.948Z,98543.59
2022-12-16T14:02:38.907Z,98540.03
2022-12-16T14:05:47.568Z,98541.91
2022-12-16T14:08:56.571Z,98553.72
2022-12-16T14:12:16.119Z,98553.63
2022-12-16T14:15:30.017Z,98563.88
2022-12-16T14:18:48.558Z,98568.53
2022-12-16T14:22:07.688Z,98570.00
2022-12-16T14:25:12.464Z,98572.38
2022-12-16T14:28:17.381Z,98587.72
2022-12-16T14:31:24.243Z,98582.50
2022-12-16T14:34:38.569Z,98591.97
2022-12-16T14:37:48.662Z,98588.31
2022-12-16T14:40:52.478Z,98603.34
2022-12-16T14:44:01.661Z,98611.97
2022-12-16T14:47:10.438Z,98608.44
2022-12-16T14:50:14.549Z,98603.66
2022-12-16T14:53:38.547Z,98623.53
2022-12-16T14:56:42.274Z,98629.84
2022-12-16T14:59:46.534Z,98621.88
2022-12-16T15:03:02.674Z,98630.53
2022-12-16T15:06:07.572Z,98626.19
2022-12-16T15:09:16.748Z,98634.44
2022-12-16T15:12:21.133Z,98647.91
2022-12-16T15:15:32.919Z,98647.91
2022-12-16T15:18:52.313Z,98639.13
2022-12-16T15:21:56.950Z,98651.03
2022-12-16T15:25:02.653Z,98664.88
2022-12-16T15:28:14.396Z,98671.63
2022-12-16T15:31:32.043Z,98674.00
2022-12-16T15:34:49.175Z,98675.19
2022-12-16T15:38:03.860Z,98681.53
2022-12-16T15:41:09.880Z,98690.19
2022-12-16T15:44:28.207Z,98689.34
2022-12-16T15:47:59.156Z,98699.13
2022-12-16T15:51:12.144Z,98703.81
2022-12-16T15:54:22.944Z,98710.13
2022-12-16T15:57:51.407Z,98714.44
2022-12-16T16:00:55.113Z,98713.63
2022-12-16T16:04:08.397Z,98726.31
2022-12-16T16:07:12.242Z,98724.38
2022-12-16T16:10:24.494Z,98722.09
2022-12-16T16:13:29.070Z,98728.88
2022-12-16T16:16:34.124Z,98730.84
2022-12-16T16:19:45.016Z,98750.28
2022-12-16T16:22:48.912Z,98734.06
2022-12-16T16:25:52.837Z,98744.31
2022-12-16T16:28:57.015Z,98742.75
2022-12-16T16:32:04.145Z,98744.09
2022-12-16T16:35:09.100Z,98750.53
2022-12-16T16:38:18.354Z,98749.44
2022-12-16T16:41:22.586Z,98747.19
2022-12-16T16:44:26.522Z,98748.03
2022-12-16T16:47:35.354Z,98757.13
2022-12-16T16:50:39.150Z,98760.59
2022-12-16T16:53:42.899Z,98766.97
2022-12-16T16:56:47.588Z,98768.94
2022-12-16T16:59:51.153Z,98761.75
2022-12-16T17:02:55.188Z,98764.88
2022-12-16T17:05:59.460Z,98770.50
2022-12-16T17:09:03.298Z,98776.69
2022-12-16T17:12:06.982Z,98785.44
2022-12-16T17:15:10.861Z,98782.31
2022-12-16T17:18:14.827Z,98789.53
2022-12-16T17:21:18.703Z,98786.63
2022-12-16T17:24:22.546Z,98794.66
2022-12-16T17:27:36.185Z,98792.81
2022-12-16T17:30:46.930Z,98808.50
2022-12-16T17:33:51.483Z,98813.91
2022-12-16T17:36:55.229Z,98819.81
2022-12-16T17:39:59.169Z,98816.19
2022-12-16T17:43:03.229Z,98816.56
2022-12-16T17:46:22.386Z,98829.91
2022-12-16T17:49:28.669Z,98824.72
2022-12-16T17:52:32.446Z,98830.63
2022-12-16T17:55:36.311Z,98835.75
2022-12-16T17:58:40.267Z,98838.13
2022-12-16T18:01:44.253Z,98848.78
2022-12-16T18:04:48.283Z,98848.34
2022-12-16T18:07:52.277Z,98855.94
2022-12-16T18:10:56.182Z,98853.13
2022-12-16T18:14:00.202Z,98857.81
2022-12-16T18:17:04.139Z,98856.63
2022-12-16T18:20:07.983Z,98856.53
2022-12-16T18:23:12.780Z,98857.75
2022-12-16T18:26:24.319Z,98859.66
2022-12-16T18:29:28.096Z,98858.81
2022-12-16T18:32:35.329Z,98863.94
2022-12-16T18:35:43.056Z,98863.16
2022-12-16T18:38:46.960Z,98873.41
2022-12-16T18:41:51.551Z,98875.41
2022-12-16T18:45:00.892Z,98875.34
2022-12-16T18:48:05.464Z,98873.63
2022-12-16T18:51:17.382Z,98878.38
2022-12-16T18:54:35.385Z,98880.75
2022-12-16T18:57:40.198Z,98881.25
2022-12-16T19:00:43.894Z,98888.00
2022-12-16T19:03:47.903Z,98888.75
2022-12-16T19:06:52.910Z,98876.88
2022-12-16T19:09:57.120Z,98883.66
2022-12-16T19:13:01.537Z,98889.22
2022-12-16T19:16:15.717Z,98890.41
2022-12-16T19:19:20.351Z,98889.63
2022-12-16T19:22:24.708Z,98890.47
2022-12-16T19:25:48.355Z,98894.44
2022-12-16T19:28:53.429Z,98895.72
2022-12-16T19:32:00.501Z,98898.56
2022-12-16T19:35:04.843Z,98899.22
2022-12-16T19:38:08.571Z,98905.91
2022-12-16T19:41:14.019Z,98908.63
2022-12-16T19:44:21.500Z,98908.53
2022-12-16T19:47:25.631Z,98905.28
2022-12-16T19:50:30.421Z,98912.75
2022-12-16T19:53:34.484Z,98920.31
2022-12-16T19:56:39.126Z,98925.84
2022-12-16T19:59:43.598Z,98932.97
2022-12-16T20:02:47.620Z,98936.88
2022-12-16T20:05:52.008Z,98947.19
2022-12-16T20:08:55.766Z,98947.69
2022-12-16T20:12:02.179Z,98955.28
2022-12-16T20:15:09.238Z,98961.59
2022-12-16T20:18:13.197Z,98957.66
2022-12-16T20:21:21.593Z,98972.28
2022-12-16T20:24:28.797Z,98974.97
2022-12-16T20:27:32.550Z,98976.56
2022-12-16T20:30:36.662Z,98983.75
2022-12-16T20:33:41.222Z,98986.09
2022-12-16T20:36:45.453Z,98988.03
2022-12-16T20:39:56.349Z,98990.13
2022-12-16T20:43:00.876Z,98988.81
2022-12-16T20:46:06.355Z,98996.19
2022-12-16T20:49:10.352Z,98998.66
2022-12-16T20:52:14.352Z,99004.34
2022-12-16T20:55:18.211Z,98998.88
2022-12-16T20:58:22.116Z,99004.09
2022-12-16T21:01:26.104Z,99008.50
2022-12-16T21:04:29.906Z,99006.19
2022-12-16T21:07:33.833Z,99009.81
2022-12-16T21:10:37.725Z,99012.69
2022-12-16T21:13:41.507Z,99022.66
2022-12-16T21:16:45.344Z,99024.69
2022-12-16T21:19:49.181Z,99033.47
2022-12-16T21:22:53.149Z,99031.09
2022-12-16T21:25:57.005Z,99033.91
2022-12-16T21:29:00.830Z,99039.50
2022-12-16T21:32:04.712Z,99037.53
2022-12-16T21:35:08.394Z,99039.91
2022-12-16T21:38:13.463Z,99050.22
2022-12-16T21:41:17.452Z,99056.13
2022-12-16T21:44:21.230Z,99058.91
2022-12-16T21:47:25.070Z,99057.31
2022-12-16T21:50:28.772Z,99068.03
2022-12-16T21:53:32.657Z,99059.38
2022-12-16T21:56:36.560Z,99068.84
2022-12-16T21:59:40.412Z,99081.94
2022-12-16T22:02:44.180Z,99086.69
2022-12-16T22:05:48.246Z,99088.28
2022-12-16T22:08:59.667Z,99092.25
2022-12-16T22:12:03.794Z,99097.81
2022-12-16T22:15:07.503Z,99101.41
2022-12-16T22:18:11.326Z,99101.81
2022-12-16T22:21:20.815Z,99096.28
2022-12-16T22:24:24.459Z,99097.88
2022-12-16T22:27:28.314Z,99097.88
2022-12-16T22:30:32.152Z,99101.88
2022-12-16T22:33:35.703Z,99105.06
2022-12-16T22:36:39.593Z,99107.81
2022-12-16T22:39:45.062Z,99107.81
2022-12-16T22:42:49.209Z,99113.00
2022-12-16T22:45:53.316Z,99120.50
2022-12-16T22:49:00.191Z,99116.97
2022-12-16T22:52:04.111Z,99117.34
2022-12-16T22:55:08.002Z,99125.28
2022-12-16T22:58:11.869Z,99129.59
2022-12-16T23:01:16.545Z,99137.97
2022-12-16T23:04:20.541Z,99134.75
2022-12-16T23:07:24.102Z,99134.38
2022-12-16T23:10:28.094Z,99131.63
2022-12-16T23:13:32.337Z,99141.13
2022-12-16T23:16:36.304Z,99139.16
2022-12-16T23:19:40.008Z,99135.22
2022-12-16T23:22:43.901Z,99136.41
2022-12-16T23:25:47.734Z,99147.47
2022-12-16T23:29:11.404Z,99134.06
2022-12-16T23:32:15.483Z,99138.81
2022-12-16T23:35:19.854Z,99141.59
2022-12-16T23:38:25.298Z,99134.47
2022-12-16T23:41:29.017Z,99144.75
2022-12-16T23:44:32.948Z,99144.75
2022-12-16T23:47:36.994Z,99152.66
2022-12-16T23:50:40.958Z,99149.50
2022-12-16T23:53:44.686Z,99157.44
2022-12-16T23:56:48.532Z,99159.00
2022-12-16T23:59:52.464Z,99170.06
